Time;durP1;ratioP1;P1;durP2;ratioP2;P2;SDS_P1;SDS_P2;PMS_P1;PMS_P2;Temp;Humidity;BMP_temperature;BMP_pressure;BME280_temperature;BME280_humidity;BME280_pressure;Samples;Min_cycle;Max_cycle;Signal;HPM_P1;HPM_P2
2021/08/27 00:02:12;;;;;;;4.03;1.92;;;;;;;;;;4905220;29;20202;-82
2021/08/27 00:04:39;;;;;;;1.83;1.15;;;;;;;;;;4914847;29;20589;-82
2021/08/27 00:07:07;;;;;;;2.20;1.40;;;;;;;;;;4916645;29;20234;-83
2021/08/27 00:09:35;;;;;;;1.85;1.42;;;;;;;;;;4917061;29;20584;-82
2021/08/27 00:12:04;;;;;;;1.52;1.30;;;;;;;;;;4916917;29;20190;-82
2021/08/27 00:14:31;;;;;;;2.00;1.45;;;;;;;;;;4917026;29;20752;-82
2021/08/27 00:16:58;;;;;;;5.05;1.70;;;;;;;;;;4916759;29;20191;-82
2021/08/27 00:19:26;;;;;;;3.15;1.85;;;;;;;;;;4916967;29;20203;-82
2021/08/27 00:21:53;;;;;;;1.48;1.38;;;;;;;;;;4916710;29;20194;-82
2021/08/27 00:24:21;;;;;;;2.42;1.30;;;;;;;;;;4916056;29;20225;-82
2021/08/27 00:26:50;;;;;;;3.75;1.90;;;;;;;;;;4916808;29;20716;-82
2021/08/27 00:29:17;;;;;;;2.67;1.60;;;;;;;;;;4916724;29;20194;-82
2021/08/27 00:31:44;;;;;;;2.30;1.65;;;;;;;;;;4916958;29;20197;-82
2021/08/27 00:34:12;;;;;;;2.83;1.83;;;;;;;;;;4916344;29;20233;-83
2021/08/27 00:36:39;;;;;;;3.65;1.52;;;;;;;;;;4916790;29;20202;-82
2021/08/27 00:39:07;;;;;;;5.85;2.08;;;;;;;;;;4917237;29;20221;-82
2021/08/27 00:41:34;;;;;;;2.90;1.80;;;;;;;;;;4917069;29;20194;-83
2021/08/27 00:44:03;;;;;;;2.47;1.65;;;;;;;;;;4916920;29;20221;-83
2021/08/27 00:46:31;;;;;;;2.33;2.15;;;;;;;;;;4917008;29;20207;-83
2021/08/27 00:48:58;;;;;;;3.72;1.67;;;;;;;;;;4916922;29;20668;-83
2021/08/27 00:51:26;;;;;;;2.60;1.52;;;;;;;;;;4917139;29;20209;-82
2021/08/27 00:53:53;;;;;;;3.90;2.05;;;;;;;;;;4916749;29;20697;-82
2021/08/27 00:56:21;;;;;;;2.80;1.63;;;;;;;;;;4916980;29;20669;-82
2021/08/27 00:58:48;;;;;;;3.70;2.05;;;;;;;;;;4916284;29;20202;-83
2021/08/27 01:01:17;;;;;;;3.42;1.73;;;;;;;;;;4916882;29;20202;-83
2021/08/27 01:03:45;;;;;;;4.70;1.85;;;;;;;;;;4916715;29;20230;-83
2021/08/27 01:06:22;;;;;;;2.47;1.80;;;;;;;;;;4917352;29;20209;-84
2021/08/27 01:08:57;;;;;;;5.22;1.60;;;;;;;;;;4916829;29;20210;-83
2021/08/27 01:11:31;;;;;;;4.05;2.45;;;;;;;;;;4917039;29;20624;-83
2021/08/27 01:14:03;;;;;;;5.78;2.50;;;;;;;;;;4916798;29;20222;-83
2021/08/27 01:16:37;;;;;;;2.38;1.70;;;;;;;;;;4916785;29;20198;-83
2021/08/27 01:19:32;;;;;;;2.13;1.75;;;;;;;;;;4917039;29;20198;-83
2021/08/27 01:22:12;;;;;;;2.25;1.60;;;;;;;;;;4917610;29;20191;-82
2021/08/27 01:24:41;;;;;;;2.83;2.25;;;;;;;;;;4916892;29;20249;-83
2021/08/27 01:27:11;;;;;;;2.63;2.33;;;;;;;;;;4917293;29;20190;-83
2021/08/27 01:29:48;;;;;;;3.20;2.20;;;;;;;;;;4916871;29;20187;-83
2021/08/27 01:32:23;;;;;;;3.45;2.10;;;;;;;;;;4917101;29;20202;-83
2021/08/27 01:34:53;;;;;;;3.47;2.80;;;;;;;;;;4918573;29;20205;-84
2021/08/27 01:37:23;;;;;;;5.07;1.98;;;;;;;;;;4920270;29;20564;-83
2021/08/27 01:39:54;;;;;;;4.80;2.65;;;;;;;;;;4920709;29;20684;-83
2021/08/27 01:42:26;;;;;;;4.47;2.47;;;;;;;;;;4920195;29;20199;-83
2021/08/27 01:44:56;;;;;;;4.07;2.53;;;;;;;;;;4919809;29;20195;-83
2021/08/27 01:47:31;;;;;;;2.90;2.08;;;;;;;;;;4918670;29;20194;-83
2021/08/27 01:50:01;;;;;;;5.43;2.42;;;;;;;;;;4919445;29;20220;-83
2021/08/27 01:52:28;;;;;;;3.67;2.10;;;;;;;;;;4918712;29;20190;-83
2021/08/27 01:54:58;;;;;;;5.78;2.80;;;;;;;;;;4919241;29;20297;-83
2021/08/27 01:57:26;;;;;;;3.55;2.30;;;;;;;;;;4917220;29;20193;-83
2021/08/27 01:59:54;;;;;;;5.72;3.95;;;;;;;;;;4917939;29;20200;-83
2021/08/27 02:02:22;;;;;;;5.35;3.30;;;;;;;;;;4907000;29;20210;-82
2021/08/27 02:04:53;;;;;;;3.85;3.00;;;;;;;;;;4900176;29;20203;-82
2021/08/27 02:07:22;;;;;;;5.72;2.42;;;;;;;;;;4899718;29;20188;-82
2021/08/27 02:09:52;;;;;;;3.15;2.15;;;;;;;;;;4900192;29;20215;-82
2021/08/27 02:12:20;;;;;;;6.47;2.90;;;;;;;;;;4916941;29;20788;-83
2021/08/27 02:14:50;;;;;;;6.38;2.60;;;;;;;;;;4919002;29;20187;-84
2021/08/27 02:17:18;;;;;;;8.95;2.72;;;;;;;;;;4918598;29;20183;-84
2021/08/27 02:19:46;;;;;;;3.20;2.22;;;;;;;;;;4918543;29;20210;-84
2021/08/27 02:22:16;;;;;;;3.97;2.50;;;;;;;;;;4918944;29;20213;-84
2021/08/27 02:24:50;;;;;;;3.95;2.35;;;;;;;;;;4917687;29;20195;-83
2021/08/27 02:27:18;;;;;;;2.70;2.50;;;;;;;;;;4918036;29;20685;-82
2021/08/27 02:29:46;;;;;;;2.65;2.25;;;;;;;;;;4918617;29;20214;-83
2021/08/27 02:32:14;;;;;;;2.95;2.03;;;;;;;;;;4918548;29;20198;-84
2021/08/27 02:34:44;;;;;;;3.20;2.08;;;;;;;;;;4918353;29;20226;-82
2021/08/27 02:37:15;;;;;;;2.88;2.20;;;;;;;;;;4918623;29;20565;-82
2021/08/27 02:39:45;;;;;;;2.28;2.08;;;;;;;;;;4918034;29;20795;-83
2021/08/27 02:42:12;;;;;;;4.32;2.70;;;;;;;;;;4917551;29;20203;-82
2021/08/27 02:44:40;;;;;;;3.13;2.15;;;;;;;;;;4916339;29;20308;-83
2021/08/27 02:47:08;;;;;;;4.15;2.50;;;;;;;;;;4916363;29;20201;-83
2021/08/27 02:49:37;;;;;;;3.80;3.50;;;;;;;;;;4918019;29;20688;-83
2021/08/27 02:52:10;;;;;;;3.33;2.85;;;;;;;;;;4918655;29;20198;-82
2021/08/27 02:54:49;;;;;;;5.10;3.03;;;;;;;;;;4918515;29;20728;-83
2021/08/27 02:57:17;;;;;;;2.75;2.53;;;;;;;;;;4908692;29;20195;-83
2021/08/27 02:59:45;;;;;;;2.72;2.50;;;;;;;;;;4899423;29;20187;-82
2021/08/27 03:02:15;;;;;;;2.92;2.65;;;;;;;;;;4899023;29;20967;-83
2021/08/27 03:04:54;;;;;;;3.83;2.35;;;;;;;;;;4916460;29;20203;-83
2021/08/27 03:07:23;;;;;;;3.22;2.05;;;;;;;;;;4918272;29;20202;-83
2021/08/27 03:09:58;;;;;;;2.33;2.03;;;;;;;;;;4899283;29;20226;-83
2021/08/27 03:12:34;;;;;;;5.85;3.15;;;;;;;;;;4899255;29;20195;-83
2021/08/27 03:15:02;;;;;;;2.92;2.47;;;;;;;;;;4899604;29;20391;-83
2021/08/27 03:17:35;;;;;;;3.45;2.95;;;;;;;;;;4898748;29;20203;-83
2021/08/27 03:20:11;;;;;;;3.33;3.03;;;;;;;;;;4897985;29;20187;-83
2021/08/27 03:22:45;;;;;;;8.55;4.63;;;;;;;;;;4898231;29;20290;-83
2021/08/27 03:25:15;;;;;;;5.75;3.90;;;;;;;;;;4900358;29;20183;-83
2021/08/27 03:27:45;;;;;;;5.22;3.33;;;;;;;;;;4917972;29;20199;-83
2021/08/27 03:30:18;;;;;;;6.15;4.07;;;;;;;;;;4917884;29;20215;-82
2021/08/27 03:32:49;;;;;;;4.65;3.28;;;;;;;;;;4917923;29;20226;-83
2021/08/27 03:35:20;;;;;;;5.00;3.53;;;;;;;;;;4917724;29;20657;-83
2021/08/27 03:37:49;;;;;;;6.97;3.38;;;;;;;;;;4918139;29;20563;-83
2021/08/27 03:40:20;;;;;;;4.10;3.55;;;;;;;;;;4917965;29;20245;-84
2021/08/27 03:42:48;;;;;;;5.63;4.13;;;;;;;;;;4918257;29;20230;-83
2021/08/27 03:45:18;;;;;;;4.57;3.08;;;;;;;;;;4917941;29;20638;-83
2021/08/27 03:47:47;;;;;;;4.43;2.78;;;;;;;;;;4917515;29;20665;-84
2021/08/27 03:50:15;;;;;;;3.95;2.78;;;;;;;;;;4917388;29;20233;-83
2021/08/27 03:52:44;;;;;;;2.60;2.40;;;;;;;;;;4916542;29;20242;-84
2021/08/27 03:55:15;;;;;;;2.97;2.78;;;;;;;;;;4917357;29;20194;-84
2021/08/27 03:57:48;;;;;;;3.22;2.70;;;;;;;;;;4917953;29;20191;-83
2021/08/27 04:00:19;;;;;;;3.40;2.85;;;;;;;;;;4917551;29;20212;-83
2021/08/27 04:02:51;;;;;;;4.32;2.70;;;;;;;;;;4918788;29;20226;-84
2021/08/27 04:05:20;;;;;;;3.78;3.38;;;;;;;;;;4918008;29;20186;-83
2021/08/27 04:07:50;;;;;;;4.55;2.72;;;;;;;;;;4918908;29;20197;-84
2021/08/27 04:10:19;;;;;;;6.47;3.92;;;;;;;;;;4918575;29;20207;-83
2021/08/27 04:12:49;;;;;;;3.65;2.72;;;;;;;;;;4918226;29;20226;-84
2021/08/27 04:15:18;;;;;;;3.95;2.80;;;;;;;;;;4918939;29;20190;-83
2021/08/27 04:17:46;;;;;;;6.47;2.85;;;;;;;;;;4917973;29;20213;-83
2021/08/27 04:20:15;;;;;;;2.80;2.53;;;;;;;;;;4919009;29;20202;-83
2021/08/27 04:22:42;;;;;;;3.00;2.70;;;;;;;;;;4919147;29;20218;-83
2021/08/27 04:25:11;;;;;;;3.10;2.90;;;;;;;;;;4919092;29;20194;-83
2021/08/27 04:27:39;;;;;;;4.05;3.08;;;;;;;;;;4918799;29;20217;-83
2021/08/27 04:30:09;;;;;;;3.13;2.83;;;;;;;;;;4918482;29;20218;-83
2021/08/27 04:32:36;;;;;;;3.83;3.45;;;;;;;;;;4919138;29;20202;-83
2021/08/27 04:35:05;;;;;;;3.25;2.97;;;;;;;;;;4919932;29;20625;-83
2021/08/27 04:37:33;;;;;;;4.47;3.35;;;;;;;;;;4918844;29;20273;-84
2021/08/27 04:40:00;;;;;;;3.05;2.83;;;;;;;;;;4918752;29;20268;-81
2021/08/27 04:42:28;;;;;;;3.28;2.97;;;;;;;;;;4919224;29;20203;-82
2021/08/27 04:44:56;;;;;;;4.35;2.35;;;;;;;;;;4919746;29;20286;-83
2021/08/27 04:47:25;;;;;;;2.72;2.53;;;;;;;;;;4921602;29;20266;-82
2021/08/27 04:49:52;;;;;;;3.10;2.80;;;;;;;;;;4918116;29;20233;-82
2021/08/27 04:52:20;;;;;;;3.45;2.72;;;;;;;;;;4918079;29;20261;-84
2021/08/27 04:54:47;;;;;;;2.75;2.47;;;;;;;;;;4899354;29;20573;-82
2021/08/27 04:57:15;;;;;;;3.63;3.30;;;;;;;;;;4900155;29;20191;-83
2021/08/27 04:59:46;;;;;;;5.03;2.78;;;;;;;;;;4887695;29;20207;-83
2021/08/27 05:02:14;;;;;;;2.60;2.40;;;;;;;;;;4900990;29;20195;-82
2021/08/27 05:04:46;;;;;;;3.55;2.33;;;;;;;;;;4900758;29;20227;-80
2021/08/27 05:07:13;;;;;;;3.25;2.95;;;;;;;;;;4903233;29;20199;-80
2021/08/27 05:09:41;;;;;;;5.47;2.53;;;;;;;;;;4905010;29;20227;-80
2021/08/27 05:12:09;;;;;;;3.22;2.42;;;;;;;;;;4905166;29;20203;-80
2021/08/27 05:14:36;;;;;;;5.18;3.15;;;;;;;;;;4888890;29;20254;-81
2021/08/27 05:17:04;;;;;;;3.50;2.40;;;;;;;;;;4884307;29;20215;-81
2021/08/27 05:19:32;;;;;;;3.20;1.98;;;;;;;;;;4883409;29;20192;-80
2021/08/27 05:22:00;;;;;;;2.28;2.08;;;;;;;;;;4901512;29;20206;-80
2021/08/27 05:24:28;;;;;;;3.67;2.70;;;;;;;;;;4901424;29;20218;-81
2021/08/27 05:26:55;;;;;;;3.42;3.10;;;;;;;;;;4901731;29;20184;-81
2021/08/27 05:29:23;;;;;;;4.28;2.70;;;;;;;;;;4900791;29;20191;-81
2021/08/27 05:31:50;;;;;;;3.15;2.90;;;;;;;;;;4901995;29;20192;-83
2021/08/27 05:34:19;;;;;;;3.67;3.35;;;;;;;;;;4903152;29;20231;-82
2021/08/27 05:36:47;;;;;;;3.33;2.55;;;;;;;;;;4902170;29;20210;-79
2021/08/27 05:39:16;;;;;;;3.47;2.53;;;;;;;;;;4901605;29;20188;-80
2021/08/27 05:41:44;;;;;;;3.85;2.70;;;;;;;;;;4901351;29;20213;-82
2021/08/27 05:44:11;;;;;;;3.47;3.10;;;;;;;;;;4901146;29;20227;-79
2021/08/27 05:46:39;;;;;;;4.03;2.60;;;;;;;;;;4901455;29;20262;-79
2021/08/27 05:49:06;;;;;;;4.80;2.78;;;;;;;;;;4901712;29;20211;-81
2021/08/27 05:51:34;;;;;;;3.00;2.35;;;;;;;;;;4901757;29;20215;-81
2021/08/27 05:54:27;;;;;;;2.90;2.70;;;;;;;;;;4914713;29;20242;-84
2021/08/27 06:00:43;;;;;;;4.35;3.35;;;;;;;;;;4887858;29;20199;-82
2021/08/27 06:06:34;;;;;;;2.83;2.10;;;;;;;;;;4921008;29;20213;-82
2021/08/27 06:13:29;;;;;;;2.60;2.40;;;;;;;;;;4919420;29;20303;-83
2021/08/27 06:15:58;;;;;;;5.55;2.38;;;;;;;;;;4905332;29;20294;-83
2021/08/27 06:19:42;;;;;;;2.53;2.00;;;;;;;;;;4902563;29;20275;-84
2021/08/27 06:22:15;;;;;;;4.63;2.20;;;;;;;;;;4886595;29;20208;-83
2021/08/27 06:24:43;;;;;;;5.97;2.80;;;;;;;;;;4909310;29;20646;-83
2021/08/27 06:27:10;;;;;;;3.72;2.42;;;;;;;;;;4909383;29;20205;-84
2021/08/27 06:29:38;;;;;;;2.00;1.83;;;;;;;;;;4919949;29;20286;-82
2021/08/27 06:32:07;;;;;;;2.25;1.90;;;;;;;;;;4906659;29;20211;-82
2021/08/27 06:34:35;;;;;;;4.63;2.60;;;;;;;;;;4901959;29;20318;-82
2021/08/27 06:37:03;;;;;;;2.70;2.05;;;;;;;;;;4910380;29;20205;-83
2021/08/27 06:39:30;;;;;;;2.10;1.90;;;;;;;;;;4919017;29;20197;-81
2021/08/27 06:41:58;;;;;;;2.38;2.17;;;;;;;;;;4918687;29;20187;-81
2021/08/27 06:44:25;;;;;;;2.55;2.35;;;;;;;;;;4912581;29;20761;-81
2021/08/27 06:46:53;;;;;;;2.42;2.10;;;;;;;;;;4898776;29;20207;-81
2021/08/27 06:49:22;;;;;;;3.17;2.28;;;;;;;;;;4898940;29;20207;-82
2021/08/27 06:51:50;;;;;;;2.63;1.90;;;;;;;;;;4899805;29;20602;-80
2021/08/27 06:54:17;;;;;;;3.28;1.73;;;;;;;;;;4917903;29;20240;-80
2021/08/27 06:56:45;;;;;;;3.85;2.63;;;;;;;;;;4908652;29;20613;-79
2021/08/27 06:59:12;;;;;;;3.42;2.08;;;;;;;;;;4900232;29;20692;-80
2021/08/27 07:01:40;;;;;;;3.38;2.10;;;;;;;;;;4918159;29;20202;-82
2021/08/27 07:04:07;;;;;;;2.67;1.63;;;;;;;;;;4914693;29;20697;-79
2021/08/27 07:06:36;;;;;;;1.67;1.52;;;;;;;;;;4917067;29;20893;-81
2021/08/27 07:09:04;;;;;;;2.33;1.95;;;;;;;;;;4915752;29;20213;-84
2021/08/27 07:11:32;;;;;;;1.90;1.80;;;;;;;;;;4901386;29;20211;-80
2021/08/27 07:14:02;;;;;;;2.50;2.30;;;;;;;;;;4917823;29;20701;-81
2021/08/27 07:16:30;;;;;;;2.85;2.05;;;;;;;;;;4910545;29;20261;-80
2021/08/27 07:18:57;;;;;;;2.85;2.30;;;;;;;;;;4909327;29;20577;-81
2021/08/27 07:21:25;;;;;;;1.95;1.63;;;;;;;;;;4917539;29;20202;-82
2021/08/27 07:23:54;;;;;;;2.33;1.85;;;;;;;;;;4916361;29;20229;-81
2021/08/27 07:26:21;;;;;;;2.70;1.90;;;;;;;;;;4907015;29;20578;-82
2021/08/27 07:28:49;;;;;;;2.03;1.67;;;;;;;;;;4918507;29;20183;-83
2021/08/27 07:31:17;;;;;;;3.42;2.00;;;;;;;;;;4919137;29;20233;-83
2021/08/27 07:33:44;;;;;;;1.75;1.60;;;;;;;;;;4906275;29;20234;-84
2021/08/27 07:36:12;;;;;;;2.10;1.98;;;;;;;;;;4912211;29;20238;-82
2021/08/27 07:38:39;;;;;;;3.28;1.90;;;;;;;;;;4906874;29;20197;-83
2021/08/27 07:41:09;;;;;;;1.42;1.27;;;;;;;;;;4916969;29;20199;-83
2021/08/27 07:43:39;;;;;;;2.38;1.58;;;;;;;;;;4917950;29;20234;-84
2021/08/27 07:46:07;;;;;;;2.17;1.85;;;;;;;;;;4906960;29;20214;-85
2021/08/27 07:48:35;;;;;;;3.70;1.50;;;;;;;;;;4899928;29;20553;-84
2021/08/27 07:51:03;;;;;;;2.28;1.67;;;;;;;;;;4907793;29;20224;-83
2021/08/27 07:53:30;;;;;;;3.00;1.65;;;;;;;;;;4917655;29;20728;-83
2021/08/27 07:55:58;;;;;;;1.92;1.50;;;;;;;;;;4918078;29;20816;-84
2021/08/27 07:58:27;;;;;;;3.10;1.60;;;;;;;;;;4917937;29;20212;-84
2021/08/27 08:00:57;;;;;;;2.10;1.58;;;;;;;;;;4918281;29;20196;-85
2021/08/27 08:03:24;;;;;;;1.85;1.58;;;;;;;;;;4918722;29;20230;-84
2021/08/27 08:05:52;;;;;;;2.55;1.67;;;;;;;;;;4918123;29;20226;-84
2021/08/27 08:08:19;;;;;;;5.38;1.77;;;;;;;;;;4917898;29;20206;-83
2021/08/27 08:10:46;;;;;;;1.60;1.48;;;;;;;;;;4918227;29;20203;-84
2021/08/27 08:13:14;;;;;;;1.50;1.40;;;;;;;;;;4918542;29;20226;-82
2021/08/27 08:15:43;;;;;;;1.80;1.70;;;;;;;;;;4901578;29;20207;-84
2021/08/27 08:18:11;;;;;;;2.05;1.40;;;;;;;;;;4899317;29;20724;-84
2021/08/27 08:20:38;;;;;;;1.85;1.55;;;;;;;;;;4899341;29;20215;-83
2021/08/27 08:23:06;;;;;;;2.40;1.63;;;;;;;;;;4899286;29;20223;-82
2021/08/27 08:25:33;;;;;;;2.22;1.98;;;;;;;;;;4898345;29;20187;-83
2021/08/27 08:28:01;;;;;;;1.75;1.65;;;;;;;;;;4917131;29;20300;-83
2021/08/27 08:30:28;;;;;;;2.70;1.40;;;;;;;;;;4916540;29;20214;-82
2021/08/27 08:32:57;;;;;;;1.90;1.80;;;;;;;;;;4916202;29;20238;-82
2021/08/27 08:35:24;;;;;;;2.33;1.80;;;;;;;;;;4916453;29;20209;-85
2021/08/27 08:37:52;;;;;;;2.25;1.70;;;;;;;;;;4898181;29;20199;-83
2021/08/27 08:40:19;;;;;;;2.25;1.92;;;;;;;;;;4897689;29;20271;-81
2021/08/27 08:42:50;;;;;;;2.17;1.70;;;;;;;;;;4898946;29;20222;-82
2021/08/27 08:45:18;;;;;;;2.20;1.92;;;;;;;;;;4901023;29;20206;-82
2021/08/27 08:47:47;;;;;;;1.52;1.42;;;;;;;;;;4921239;29;20203;-84
2021/08/27 08:50:17;;;;;;;1.70;1.50;;;;;;;;;;4921330;29;20700;-83
2021/08/27 08:52:45;;;;;;;1.73;1.63;;;;;;;;;;4920120;29;20321;-82
2021/08/27 08:55:13;;;;;;;4.00;2.10;;;;;;;;;;4920623;29;20229;-83
2021/08/27 08:57:40;;;;;;;3.38;2.10;;;;;;;;;;4903460;29;20211;-83
2021/08/27 09:00:09;;;;;;;2.22;1.40;;;;;;;;;;4901898;29;20207;-82
2021/08/27 09:02:36;;;;;;;2.08;1.90;;;;;;;;;;4900914;29;20207;-83
2021/08/27 09:05:05;;;;;;;2.85;1.67;;;;;;;;;;4901544;29;20211;-81
2021/08/27 09:07:34;;;;;;;2.13;1.92;;;;;;;;;;4917652;29;20207;-84
2021/08/27 09:10:02;;;;;;;3.88;1.77;;;;;;;;;;4920289;29;20206;-83
2021/08/27 09:12:31;;;;;;;2.13;2.00;;;;;;;;;;4919987;29;20274;-83
2021/08/27 09:15:01;;;;;;;2.08;1.73;;;;;;;;;;4920019;29;20213;-83
2021/08/27 09:17:34;;;;;;;2.25;1.63;;;;;;;;;;4920985;29;20661;-82
2021/08/27 09:20:04;;;;;;;1.77;1.60;;;;;;;;;;4919789;29;20210;-81
2021/08/27 09:22:48;;;;;;;5.05;2.72;;;;;;;;;;4920725;29;20648;-83
2021/08/27 09:25:18;;;;;;;2.90;2.10;;;;;;;;;;4920309;29;20206;-82
2021/08/27 09:28:07;;;;;;;1.92;1.70;;;;;;;;;;4919658;29;20221;-81
2021/08/27 09:30:37;;;;;;;1.90;1.63;;;;;;;;;;4920124;29;20214;-80
2021/08/27 09:33:14;;;;;;;3.00;1.90;;;;;;;;;;4919568;29;20259;-81
2021/08/27 09:35:54;;;;;;;4.05;2.72;;;;;;;;;;4917981;29;20566;-82
2021/08/27 09:38:26;;;;;;;2.13;1.70;;;;;;;;;;4901108;29;20211;-81
2021/08/27 09:41:01;;;;;;;1.77;1.55;;;;;;;;;;4900899;29;20203;-82
2021/08/27 09:43:28;;;;;;;1.85;1.63;;;;;;;;;;4901436;29;20231;-82
2021/08/27 09:45:57;;;;;;;1.80;1.52;;;;;;;;;;4904153;29;20210;-81
2021/08/27 09:48:25;;;;;;;1.73;1.60;;;;;;;;;;4919536;29;20210;-81
2021/08/27 09:50:52;;;;;;;3.42;1.75;;;;;;;;;;4919740;29;20198;-81
2021/08/27 09:53:22;;;;;;;2.42;1.40;;;;;;;;;;4920172;29;20585;-82
2021/08/27 09:56:03;;;;;;;2.47;1.98;;;;;;;;;;4916842;29;20213;-80
2021/08/27 09:58:31;;;;;;;1.70;1.60;;;;;;;;;;4900720;29;20293;-81
2021/08/27 10:01:03;;;;;;;2.90;1.58;;;;;;;;;;4900353;29;20207;-81
2021/08/27 10:03:31;;;;;;;3.03;1.95;;;;;;;;;;4900284;29;20225;-81
2021/08/27 10:06:02;;;;;;;1.63;1.38;;;;;;;;;;4904341;29;20201;-82
2021/08/27 10:08:35;;;;;;;1.58;1.48;;;;;;;;;;4920012;29;20210;-81
2021/08/27 10:11:18;;;;;;;2.80;2.00;;;;;;;;;;4919807;29;20210;-82
2021/08/27 10:13:45;;;;;;;1.55;1.45;;;;;;;;;;4919826;29;20286;-81
2021/08/27 10:16:13;;;;;;;1.70;1.60;;;;;;;;;;4914349;29;20206;-83
2021/08/27 10:18:41;;;;;;;2.00;1.50;;;;;;;;;;4901422;29;20556;-82
2021/08/27 10:21:09;;;;;;;3.28;1.92;;;;;;;;;;4901018;29;20217;-82
2021/08/27 10:23:38;;;;;;;1.80;1.30;;;;;;;;;;4900748;29;20218;-81
2021/08/27 10:26:14;;;;;;;2.22;2.05;;;;;;;;;;4904768;29;20202;-82
2021/08/27 10:28:42;;;;;;;3.15;1.45;;;;;;;;;;4919029;29;20206;-82
2021/08/27 10:31:09;;;;;;;2.10;1.80;;;;;;;;;;4919138;29;20606;-81
2021/08/27 10:34:06;;;;;;;2.35;1.30;;;;;;;;;;4919242;29;20236;-81
2021/08/27 10:36:54;;;;;;;2.08;1.85;;;;;;;;;;4919517;29;20214;-81
2021/08/27 10:39:45;;;;;;;1.88;1.63;;;;;;;;;;4919286;29;20211;-81
2021/08/27 10:42:47;;;;;;;1.80;1.33;;;;;;;;;;4919343;29;20206;-80
2021/08/27 10:45:16;;;;;;;2.13;1.80;;;;;;;;;;4919778;29;20206;-81
2021/08/27 10:48:10;;;;;;;1.20;1.10;;;;;;;;;;4919013;29;20211;-81
2021/08/27 10:50:39;;;;;;;2.10;1.92;;;;;;;;;;4918701;29;20297;-81
2021/08/27 10:53:31;;;;;;;2.05;1.52;;;;;;;;;;4919041;29;20245;-82
2021/08/27 10:56:01;;;;;;;3.67;2.88;;;;;;;;;;4919041;29;20694;-83
2021/08/27 10:58:44;;;;;;;1.50;1.40;;;;;;;;;;4919002;29;20199;-82
2021/08/27 11:01:27;;;;;;;1.80;1.70;;;;;;;;;;4918958;29;20198;-81
2021/08/27 11:04:07;;;;;;;2.47;1.92;;;;;;;;;;4919129;29;20233;-80
2021/08/27 11:06:45;;;;;;;2.45;1.60;;;;;;;;;;4910730;29;20206;-82
2021/08/27 11:09:23;;;;;;;2.13;1.92;;;;;;;;;;4899929;29;20207;-82
2021/08/27 11:12:11;;;;;;;1.90;1.70;;;;;;;;;;4900488;29;20214;-81
2021/08/27 11:14:40;;;;;;;1.58;1.38;;;;;;;;;;4899969;29;20310;-82
2021/08/27 11:17:09;;;;;;;2.40;1.60;;;;;;;;;;4912735;29;20209;-83
2021/08/27 11:19:38;;;;;;;4.35;1.63;;;;;;;;;;4918100;29;20218;-81
2021/08/27 11:22:24;;;;;;;2.90;1.70;;;;;;;;;;4900381;29;20195;-82
2021/08/27 11:25:17;;;;;;;3.75;1.75;;;;;;;;;;4900064;29;20206;-82
2021/08/27 11:28:19;;;;;;;1.52;1.40;;;;;;;;;;4917814;29;20203;-83
2021/08/27 11:30:48;;;;;;;4.70;2.60;;;;;;;;;;4904422;29;20221;-83
2021/08/27 11:33:52;;;;;;;2.25;2.00;;;;;;;;;;4919402;29;20230;-82
2021/08/27 11:36:22;;;;;;;1.80;1.63;;;;;;;;;;4916016;29;20216;-84
2021/08/27 11:38:58;;;;;;;2.63;1.50;;;;;;;;;;4918014;29;20207;-81
2021/08/27 11:41:26;;;;;;;1.63;1.50;;;;;;;;;;4918566;29;20201;-82
2021/08/27 11:44:08;;;;;;;1.60;1.50;;;;;;;;;;4918309;29;20226;-81
2021/08/27 11:46:39;;;;;;;1.90;1.52;;;;;;;;;;4910050;29;20203;-81
2021/08/27 11:49:29;;;;;;;2.28;1.70;;;;;;;;;;4899265;29;20206;-82
2021/08/27 11:52:13;;;;;;;1.70;1.60;;;;;;;;;;4900115;29;20206;-82
2021/08/27 11:54:41;;;;;;;3.03;1.98;;;;;;;;;;4899000;29;20253;-82
2021/08/27 11:57:16;;;;;;;2.60;1.58;;;;;;;;;;4911834;29;20662;-81
2021/08/27 11:59:45;;;;;;;1.88;1.65;;;;;;;;;;4918958;29;20574;-80
2021/08/27 12:02:18;;;;;;;1.58;1.42;;;;;;;;;;4918496;29;20213;-80
2021/08/27 12:04:54;;;;;;;1.98;1.70;;;;;;;;;;4917639;29;20217;-83
2021/08/27 12:07:23;;;;;;;1.73;1.63;;;;;;;;;;4918003;29;20201;-81
2021/08/27 12:10:06;;;;;;;2.58;1.70;;;;;;;;;;4918953;29;20583;-81
2021/08/27 12:12:36;;;;;;;3.28;1.75;;;;;;;;;;4918162;29;20202;-81
2021/08/27 12:15:07;;;;;;;2.58;1.50;;;;;;;;;;4918082;29;20237;-82
2021/08/27 12:17:34;;;;;;;1.80;1.70;;;;;;;;;;4902899;29;20294;-82
2021/08/27 12:20:06;;;;;;;1.88;1.48;;;;;;;;;;4898983;29;20293;-82
2021/08/27 12:22:42;;;;;;;1.40;1.30;;;;;;;;;;4898508;29;20221;-81
2021/08/27 12:25:10;;;;;;;2.25;1.70;;;;;;;;;;4900461;29;20202;-82
2021/08/27 12:27:49;;;;;;;1.92;1.45;;;;;;;;;;4898835;29;20227;-82
2021/08/27 12:30:18;;;;;;;1.38;1.27;;;;;;;;;;4899132;29;20207;-82
2021/08/27 12:32:47;;;;;;;1.98;1.77;;;;;;;;;;4899008;29;20223;-82
2021/08/27 12:35:17;;;;;;;1.48;1.38;;;;;;;;;;4899222;29;20231;-82
2021/08/27 12:37:45;;;;;;;1.88;1.48;;;;;;;;;;4899183;29;20207;-83
2021/08/27 12:40:15;;;;;;;1.50;1.40;;;;;;;;;;4899142;29;20263;-82
2021/08/27 12:42:59;;;;;;;1.88;1.50;;;;;;;;;;4900837;29;20231;-83
2021/08/27 12:45:28;;;;;;;1.35;1.25;;;;;;;;;;4899274;29;20229;-82
2021/08/27 12:48:06;;;;;;;2.75;1.40;;;;;;;;;;4898411;29;20203;-82
2021/08/27 12:50:46;;;;;;;1.73;1.63;;;;;;;;;;4897909;29;20285;-82
2021/08/27 12:53:13;;;;;;;2.45;1.60;;;;;;;;;;4915880;29;20341;-82
2021/08/27 12:55:41;;;;;;;1.55;1.20;;;;;;;;;;4914450;29;20309;-82
2021/08/27 12:58:08;;;;;;;1.55;1.20;;;;;;;;;;4897593;29;20215;-82
2021/08/27 13:00:37;;;;;;;2.45;1.45;;;;;;;;;;4897355;29;20231;-81
2021/08/27 13:03:11;;;;;;;1.77;1.60;;;;;;;;;;4897052;29;20227;-82
2021/08/27 13:05:45;;;;;;;2.25;1.92;;;;;;;;;;4898495;29;20670;-83
2021/08/27 13:08:16;;;;;;;1.88;0.95;;;;;;;;;;4916961;29;20214;-83
2021/08/27 13:11:05;;;;;;;1.05;0.95;;;;;;;;;;4916862;29;20437;-82
2021/08/27 13:13:36;;;;;;;1.20;1.10;;;;;;;;;;4897589;29;20223;-82
2021/08/27 13:16:13;;;;;;;1.20;1.10;;;;;;;;;;4901766;29;20264;-82
2021/08/27 13:18:44;;;;;;;1.00;0.90;;;;;;;;;;4916137;29;20202;-82
2021/08/27 13:21:11;;;;;;;1.00;1.00;;;;;;;;;;4916475;29;20209;-81
2021/08/27 13:23:40;;;;;;;0.88;0.88;;;;;;;;;;4916398;29;20716;-81
2021/08/27 13:26:09;;;;;;;1.67;1.30;;;;;;;;;;4916361;29;20217;-82
2021/08/27 13:28:37;;;;;;;0.90;0.90;;;;;;;;;;4916719;29;20408;-82
2021/08/27 13:31:06;;;;;;;0.90;0.90;;;;;;;;;;4917472;29;20202;-81
2021/08/27 13:33:34;;;;;;;1.17;0.93;;;;;;;;;;4919604;29;20277;-81
2021/08/27 13:36:02;;;;;;;2.72;0.90;;;;;;;;;;4919210;29;20701;-83
2021/08/27 13:38:29;;;;;;;1.25;0.82;;;;;;;;;;4919149;29;20202;-82
2021/08/27 13:40:56;;;;;;;3.25;2.70;;;;;;;;;;4919512;29;20206;-82
2021/08/27 13:43:24;;;;;;;1.05;0.65;;;;;;;;;;4919409;29;20229;-82
2021/08/27 13:45:51;;;;;;;2.25;1.13;;;;;;;;;;4919134;29;20206;-83
2021/08/27 13:48:19;;;;;;;0.93;0.93;;;;;;;;;;4919743;29;20229;-82
2021/08/27 13:50:48;;;;;;;0.85;0.80;;;;;;;;;;4918884;29;20293;-82
2021/08/27 13:53:16;;;;;;;1.40;1.30;;;;;;;;;;4918901;29;20246;-82
2021/08/27 13:55:44;;;;;;;1.42;0.95;;;;;;;;;;4917433;29;20333;-81
2021/08/27 13:58:11;;;;;;;0.95;0.70;;;;;;;;;;4900158;29;20678;-81
2021/08/27 14:00:38;;;;;;;0.60;0.60;;;;;;;;;;4900271;29;20211;-82
2021/08/27 14:03:06;;;;;;;1.33;0.90;;;;;;;;;;4900434;29;20611;-82
2021/08/27 14:05:33;;;;;;;0.60;0.60;;;;;;;;;;4900425;29;20206;-82
2021/08/27 14:08:02;;;;;;;1.33;0.93;;;;;;;;;;4919352;29;20206;-82
2021/08/27 14:10:29;;;;;;;1.40;0.77;;;;;;;;;;4918912;29;20216;-81
2021/08/27 14:12:57;;;;;;;0.82;0.82;;;;;;;;;;4918018;29;20667;-82
2021/08/27 14:15:24;;;;;;;0.77;0.70;;;;;;;;;;4919100;29;20222;-83
2021/08/27 14:17:52;;;;;;;0.70;0.68;;;;;;;;;;4901120;29;20203;-83
2021/08/27 14:20:20;;;;;;;1.58;0.63;;;;;;;;;;4900113;29;20215;-84
2021/08/27 14:22:48;;;;;;;0.80;0.80;;;;;;;;;;4900558;29;20230;-82
2021/08/27 14:25:17;;;;;;;0.70;0.70;;;;;;;;;;4899354;29;20203;-82
2021/08/27 14:27:45;;;;;;;0.73;0.70;;;;;;;;;;4900494;29;20213;-81
2021/08/27 14:30:14;;;;;;;0.63;0.63;;;;;;;;;;4900862;29;20213;-81
2021/08/27 14:32:44;;;;;;;1.20;1.10;;;;;;;;;;4900881;29;20227;-82
2021/08/27 14:35:12;;;;;;;0.73;0.73;;;;;;;;;;4900163;29;20235;-81
2021/08/27 14:37:41;;;;;;;1.08;0.90;;;;;;;;;;4916641;29;20635;-81
2021/08/27 14:40:11;;;;;;;1.08;0.90;;;;;;;;;;4918695;29;20218;-82
2021/08/27 14:42:40;;;;;;;0.90;0.90;;;;;;;;;;4917567;29;20634;-80
2021/08/27 14:45:10;;;;;;;0.85;0.85;;;;;;;;;;4918765;29;20212;-81
2021/08/27 14:47:38;;;;;;;0.93;0.85;;;;;;;;;;4918426;29;20583;-82
2021/08/27 14:50:08;;;;;;;1.00;1.00;;;;;;;;;;4918273;29;20289;-81
2021/08/27 14:52:35;;;;;;;1.13;1.02;;;;;;;;;;4918091;29;20213;-81
2021/08/27 14:55:03;;;;;;;0.82;0.82;;;;;;;;;;4918350;29;20242;-82
2021/08/27 14:57:31;;;;;;;0.73;0.73;;;;;;;;;;4918110;29;20214;-81
2021/08/27 15:00:00;;;;;;;0.93;0.93;;;;;;;;;;4917916;29;20214;-81
2021/08/27 15:02:28;;;;;;;0.75;0.75;;;;;;;;;;4917892;29;20219;-81
2021/08/27 15:04:55;;;;;;;0.98;0.70;;;;;;;;;;4917433;29;20199;-81
2021/08/27 15:07:23;;;;;;;0.88;0.82;;;;;;;;;;4903248;29;20208;-82
2021/08/27 15:09:51;;;;;;;1.23;1.05;;;;;;;;;;4899021;29;20213;-82
2021/08/27 15:12:21;;;;;;;0.98;0.98;;;;;;;;;;4899176;29;20213;-81
2021/08/27 15:14:49;;;;;;;0.80;0.80;;;;;;;;;;4899220;29;20211;-81
2021/08/27 15:17:19;;;;;;;0.77;0.77;;;;;;;;;;4898693;29;20237;-82